Time;durP1;ratioP1;P1;durP2;ratioP2;P2;SDS_P1;SDS_P2;PMS_P1;PMS_P2;Temp;Humidity;BMP_temperature;BMP_pressure;BME280_temperature;BME280_humidity;BME280_pressure;Samples;Min_cycle;Max_cycle;Signal;HPM_P1;HPM_P2
2023/07/13 00:01:46;;;;;;;11.20;3.15;;;;;;;;;;4881945;29;20044;-79
2023/07/13 00:04:12;;;;;;;13.10;2.88;;;;;;;;;;4882631;29;20259;-79
2023/07/13 00:06:38;;;;;;;11.98;2.95;;;;;;;;;;4879030;29;20048;-79
2023/07/13 00:09:04;;;;;;;10.20;3.03;;;;;;;;;;4880717;29;20071;-82
2023/07/13 00:11:30;;;;;;;14.30;3.30;;;;;;;;;;4881513;29;20052;-79
2023/07/13 00:13:56;;;;;;;11.68;3.10;;;;;;;;;;4893181;29;20059;-80
2023/07/13 00:16:22;;;;;;;15.48;4.03;;;;;;;;;;4864006;29;20052;-79
2023/07/13 00:18:49;;;;;;;11.30;2.78;;;;;;;;;;4883621;29;20048;-79
2023/07/13 00:21:15;;;;;;;11.10;3.13;;;;;;;;;;4885032;29;20156;-80
2023/07/13 00:23:42;;;;;;;8.90;3.05;;;;;;;;;;4864363;29;20068;-80
2023/07/13 00:26:09;;;;;;;10.60;3.30;;;;;;;;;;4861203;29;20102;-80
2023/07/13 00:28:35;;;;;;;10.07;2.72;;;;;;;;;;4885136;29;20545;-80
2023/07/13 00:31:02;;;;;;;14.50;3.10;;;;;;;;;;4863812;29;20042;-80
2023/07/13 00:33:29;;;;;;;9.88;2.78;;;;;;;;;;4864080;29;20421;-80
2023/07/13 00:35:56;;;;;;;6.53;2.50;;;;;;;;;;4880282;29;20037;-80
2023/07/13 00:38:22;;;;;;;11.82;2.60;;;;;;;;;;4884568;29;20137;-80
2023/07/13 00:40:49;;;;;;;10.45;3.25;;;;;;;;;;4882342;29;20945;-80
2023/07/13 00:43:19;;;;;;;11.82;3.03;;;;;;;;;;4882838;29;20052;-81
2023/07/13 00:45:45;;;;;;;11.07;3.72;;;;;;;;;;4869506;29;20044;-80
2023/07/13 00:48:22;;;;;;;8.60;2.85;;;;;;;;;;4872525;29;20044;-80
2023/07/13 00:50:51;;;;;;;10.00;3.13;;;;;;;;;;4868096;29;20060;-81
2023/07/13 00:53:18;;;;;;;8.25;2.70;;;;;;;;;;4888788;29;20131;-80
2023/07/13 00:55:44;;;;;;;12.20;3.08;;;;;;;;;;4848589;29;20059;-81
2023/07/13 00:58:10;;;;;;;12.45;3.20;;;;;;;;;;4884323;29;20044;-81
2023/07/13 01:00:38;;;;;;;14.90;2.70;;;;;;;;;;4873543;29;20059;-80
2023/07/13 01:03:05;;;;;;;11.63;2.60;;;;;;;;;;4871868;29;20519;-80
2023/07/13 01:05:32;;;;;;;16.67;3.15;;;;;;;;;;4874368;29;20116;-80
2023/07/13 01:07:59;;;;;;;13.60;3.20;;;;;;;;;;4881536;29;20062;-80
2023/07/13 01:10:26;;;;;;;11.52;4.20;;;;;;;;;;4883576;29;20166;-80
2023/07/13 01:12:52;;;;;;;11.15;2.90;;;;;;;;;;4865878;29;20056;-80
2023/07/13 01:15:38;;;;;;;11.25;2.80;;;;;;;;;;4879468;29;20090;-80
2023/07/13 01:18:08;;;;;;;18.60;4.10;;;;;;;;;;4880353;29;20044;-80
2023/07/13 01:20:35;;;;;;;18.15;3.78;;;;;;;;;;4866415;29;20055;-81
2023/07/13 01:23:03;;;;;;;13.25;4.28;;;;;;;;;;4881696;29;20060;-80
2023/07/13 01:25:29;;;;;;;16.80;4.07;;;;;;;;;;4883917;29;20138;-81
2023/07/13 01:27:55;;;;;;;15.18;3.63;;;;;;;;;;4868515;29;20083;-80
2023/07/13 01:30:21;;;;;;;11.60;2.95;;;;;;;;;;4878558;29;20902;-80
2023/07/13 01:32:47;;;;;;;14.23;3.75;;;;;;;;;;4878206;29;20040;-81
2023/07/13 01:35:13;;;;;;;12.00;3.30;;;;;;;;;;4883410;29;20156;-80
2023/07/13 01:37:40;;;;;;;10.90;2.97;;;;;;;;;;4863380;29;20071;-80
2023/07/13 01:40:08;;;;;;;11.93;4.15;;;;;;;;;;4884348;29;20056;-80
2023/07/13 01:42:34;;;;;;;11.98;3.38;;;;;;;;;;4880764;29;20075;-80
2023/07/13 01:45:00;;;;;;;15.20;3.95;;;;;;;;;;4881043;29;20886;-80
2023/07/13 01:47:27;;;;;;;12.70;3.92;;;;;;;;;;4879447;29;20040;-80
2023/07/13 01:49:53;;;;;;;14.55;3.80;;;;;;;;;;4880030;29;20401;-80
2023/07/13 01:52:20;;;;;;;13.55;3.80;;;;;;;;;;4869408;29;20040;-80
2023/07/13 01:54:46;;;;;;;18.60;4.68;;;;;;;;;;4886675;29;20920;-80
2023/07/13 01:57:12;;;;;;;15.30;3.83;;;;;;;;;;4880766;29;20044;-80
2023/07/13 01:59:38;;;;;;;19.63;4.90;;;;;;;;;;4887175;29;20053;-80
2023/07/13 02:02:04;;;;;;;14.95;3.55;;;;;;;;;;4853919;29;20112;-80
2023/07/13 02:04:30;;;;;;;15.50;4.90;;;;;;;;;;4887187;29;20158;-80
2023/07/13 02:06:56;;;;;;;15.40;3.92;;;;;;;;;;4872585;29;20047;-80
2023/07/13 02:09:22;;;;;;;15.80;3.63;;;;;;;;;;4867953;29;20812;-80
2023/07/13 02:11:48;;;;;;;22.05;4.10;;;;;;;;;;4871872;29;20421;-80
2023/07/13 02:14:15;;;;;;;19.25;3.83;;;;;;;;;;4890780;29;21016;-81
2023/07/13 02:16:41;;;;;;;19.13;3.88;;;;;;;;;;4884393;29;20532;-80
2023/07/13 02:19:10;;;;;;;16.60;4.57;;;;;;;;;;4890690;29;20433;-80
2023/07/13 02:21:37;;;;;;;17.27;5.15;;;;;;;;;;4885662;29;20056;-80
2023/07/13 02:24:03;;;;;;;17.27;4.10;;;;;;;;;;4883336;29;20044;-77
2023/07/13 02:26:29;;;;;;;13.65;3.88;;;;;;;;;;4872552;29;20055;-77
2023/07/13 02:28:55;;;;;;;13.10;3.78;;;;;;;;;;4878987;29;20098;-77
2023/07/13 02:31:21;;;;;;;9.23;3.28;;;;;;;;;;4870656;29;20049;-77
2023/07/13 02:33:47;;;;;;;15.35;3.97;;;;;;;;;;4870883;29;20464;-77
2023/07/13 02:36:16;;;;;;;14.02;3.60;;;;;;;;;;4893332;29;20076;-78
2023/07/13 02:38:42;;;;;;;14.52;4.53;;;;;;;;;;4875920;29;20040;-77
2023/07/13 02:41:09;;;;;;;9.27;3.70;;;;;;;;;;4877312;29;20090;-78
2023/07/13 02:43:35;;;;;;;11.93;3.47;;;;;;;;;;4888839;29;20402;-77
2023/07/13 02:46:06;;;;;;;14.10;3.47;;;;;;;;;;4883608;29;20048;-77
2023/07/13 02:48:37;;;;;;;12.65;3.58;;;;;;;;;;4870093;29;20630;-77
2023/07/13 02:51:03;;;;;;;20.05;3.88;;;;;;;;;;4874823;29;20049;-78
2023/07/13 02:53:29;;;;;;;13.40;3.15;;;;;;;;;;4886612;29;20908;-77
2023/07/13 02:55:56;;;;;;;12.65;3.35;;;;;;;;;;4855821;29;20048;-77
2023/07/13 02:58:22;;;;;;;14.43;3.75;;;;;;;;;;4872383;29;20048;-77
2023/07/13 03:00:50;;;;;;;11.05;3.40;;;;;;;;;;4888008;29;20044;-77
2023/07/13 03:03:16;;;;;;;10.45;3.60;;;;;;;;;;4870297;29;20803;-77
2023/07/13 03:05:44;;;;;;;12.63;3.55;;;;;;;;;;4891966;29;20052;-77
2023/07/13 03:08:11;;;;;;;10.80;3.58;;;;;;;;;;4869879;29;20052;-78
2023/07/13 03:10:37;;;;;;;15.80;3.42;;;;;;;;;;4866221;29;20083;-77
2023/07/13 03:13:03;;;;;;;14.68;3.53;;;;;;;;;;4881939;29;20154;-76
2023/07/13 03:15:29;;;;;;;9.32;2.90;;;;;;;;;;4878659;29;20063;-77
2023/07/13 03:17:55;;;;;;;16.98;3.92;;;;;;;;;;4884303;29;20047;-77
2023/07/13 03:20:22;;;;;;;14.02;3.35;;;;;;;;;;4884552;29;20040;-77
2023/07/13 03:22:48;;;;;;;13.63;3.05;;;;;;;;;;4885820;29;20046;-78
2023/07/13 03:25:14;;;;;;;13.80;3.45;;;;;;;;;;4905748;29;22047;-77
2023/07/13 03:27:40;;;;;;;11.68;3.17;;;;;;;;;;4892329;29;20044;-77
2023/07/13 03:30:06;;;;;;;22.10;4.03;;;;;;;;;;4900907;29;20044;-78
2023/07/13 03:32:33;;;;;;;10.65;3.42;;;;;;;;;;4900037;29;20051;-78
2023/07/13 03:34:59;;;;;;;19.60;4.00;;;;;;;;;;4899442;29;20082;-78
2023/07/13 03:37:25;;;;;;;14.02;4.30;;;;;;;;;;4904487;29;20079;-77
2023/07/13 03:39:51;;;;;;;16.52;4.47;;;;;;;;;;4915898;29;20060;-78
2023/07/13 03:42:17;;;;;;;11.85;4.20;;;;;;;;;;4908751;29;20101;-77
2023/07/13 03:44:52;;;;;;;16.65;4.25;;;;;;;;;;4887681;29;20051;-78
2023/07/13 03:47:18;;;;;;;24.67;4.72;;;;;;;;;;4889157;29;20047;-79
2023/07/13 03:49:45;;;;;;;23.75;5.13;;;;;;;;;;4890352;29;20608;-78
2023/07/13 03:52:12;;;;;;;15.43;5.43;;;;;;;;;;4882861;29;21892;-78
2023/07/13 03:54:38;;;;;;;26.63;5.57;;;;;;;;;;4882945;29;20124;-78
2023/07/13 03:57:04;;;;;;;16.33;4.75;;;;;;;;;;4883823;29;20044;-78
2023/07/13 03:59:30;;;;;;;18.05;5.18;;;;;;;;;;4881144;29;20055;-78
2023/07/13 04:01:56;;;;;;;12.32;4.25;;;;;;;;;;4866881;29;20120;-78
2023/07/13 04:04:22;;;;;;;11.43;3.70;;;;;;;;;;4865768;29;20070;-78
2023/07/13 04:06:48;;;;;;;17.98;4.07;;;;;;;;;;4861383;29;20048;-78
2023/07/13 04:09:15;;;;;;;15.50;4.13;;;;;;;;;;4863340;29;20047;-78
2023/07/13 04:11:41;;;;;;;15.80;4.57;;;;;;;;;;4865279;29;20052;-78
2023/07/13 04:14:07;;;;;;;21.02;4.28;;;;;;;;;;4884517;29;20051;-79
2023/07/13 04:16:33;;;;;;;12.65;3.88;;;;;;;;;;4868139;29;20059;-77
2023/07/13 04:18:59;;;;;;;19.77;3.63;;;;;;;;;;4875733;29;20135;-77
2023/07/13 04:21:27;;;;;;;15.82;5.22;;;;;;;;;;4885300;29;20040;-77
2023/07/13 04:23:53;;;;;;;13.50;4.03;;;;;;;;;;4874628;29;20120;-77
2023/07/13 04:26:20;;;;;;;12.52;3.35;;;;;;;;;;4884238;29;20494;-77
2023/07/13 04:28:47;;;;;;;25.92;5.10;;;;;;;;;;4885083;29;21441;-78
2023/07/13 04:31:13;;;;;;;15.90;4.10;;;;;;;;;;4885241;29;20059;-78
2023/07/13 04:33:39;;;;;;;21.80;4.25;;;;;;;;;;4884134;29;20532;-77
2023/07/13 04:36:06;;;;;;;15.40;3.88;;;;;;;;;;4899168;29;20054;-76
2023/07/13 04:38:32;;;;;;;16.90;4.50;;;;;;;;;;4883175;29;20123;-77
2023/07/13 04:41:00;;;;;;;21.00;5.25;;;;;;;;;;4882388;29;20053;-77
2023/07/13 04:43:33;;;;;;;16.63;4.80;;;;;;;;;;5099086;27;1306427;-77
2023/07/13 04:46:04;;;;;;;18.67;4.72;;;;;;;;;;5127479;27;20126;-77
2023/07/13 04:48:31;;;;;;;15.18;4.55;;;;;;;;;;5095729;27;20039;-77
2023/07/13 04:50:57;;;;;;;20.60;4.28;;;;;;;;;;5109920;27;20054;-77
2023/07/13 04:53:24;;;;;;;18.48;3.85;;;;;;;;;;5106028;27;20095;-78
2023/07/13 04:55:50;;;;;;;13.60;4.32;;;;;;;;;;5100240;27;20201;-78
2023/07/13 04:58:17;;;;;;;22.23;5.03;;;;;;;;;;5105934;27;20119;-78
2023/07/13 05:00:43;;;;;;;16.08;4.32;;;;;;;;;;5087677;27;20046;-78
2023/07/13 05:03:09;;;;;;;20.42;4.40;;;;;;;;;;5079248;27;20189;-77
2023/07/13 05:05:35;;;;;;;22.38;5.82;;;;;;;;;;5107451;27;20072;-77
2023/07/13 05:08:02;;;;;;;15.80;4.70;;;;;;;;;;5104024;27;20043;-77
2023/07/13 05:10:28;;;;;;;17.42;4.90;;;;;;;;;;5101559;27;20126;-77
2023/07/13 05:12:54;;;;;;;16.40;5.47;;;;;;;;;;5105691;27;20092;-77
2023/07/13 05:15:22;;;;;;;22.20;5.43;;;;;;;;;;5087655;27;21995;-77
2023/07/13 05:17:48;;;;;;;15.63;5.45;;;;;;;;;;5107532;27;20050;-78
2023/07/13 05:20:15;;;;;;;20.73;4.82;;;;;;;;;;5106043;27;20047;-79
2023/07/13 05:22:41;;;;;;;17.20;5.38;;;;;;;;;;5100886;27;20074;-77
2023/07/13 05:25:08;;;;;;;20.27;5.93;;;;;;;;;;5108972;27;20601;-77
2023/07/13 05:27:35;;;;;;;13.00;4.32;;;;;;;;;;5121252;27;20034;-78
2023/07/13 05:30:01;;;;;;;20.48;4.78;;;;;;;;;;5084503;27;21561;-77
2023/07/13 05:32:27;;;;;;;17.20;4.75;;;;;;;;;;5102550;27;20051;-77
2023/07/13 05:34:53;;;;;;;13.82;4.50;;;;;;;;;;5102811;27;20043;-77
2023/07/13 05:37:19;;;;;;;16.23;4.40;;;;;;;;;;5089700;27;20070;-80
2023/07/13 05:39:45;;;;;;;15.20;4.78;;;;;;;;;;5086789;27;20111;-78
2023/07/13 05:42:11;;;;;;;16.10;4.18;;;;;;;;;;5099608;27;20134;-77
2023/07/13 05:44:38;;;;;;;21.20;4.90;;;;;;;;;;5117225;27;20043;-78
2023/07/13 05:47:04;;;;;;;18.13;5.25;;;;;;;;;;5116133;27;20089;-78
2023/07/13 05:49:30;;;;;;;12.57;4.30;;;;;;;;;;5080566;27;20487;-78
2023/07/13 05:51:57;;;;;;;21.08;4.25;;;;;;;;;;5099053;27;20050;-78
2023/07/13 05:54:23;;;;;;;17.80;4.82;;;;;;;;;;5071907;28;20122;-78
2023/07/13 05:56:49;;;;;;;16.35;4.63;;;;;;;;;;5086094;28;20047;-78
2023/07/13 05:59:15;;;;;;;12.00;3.95;;;;;;;;;;5083912;28;20043;-78
2023/07/13 06:01:41;;;;;;;19.90;4.82;;;;;;;;;;5065523;28;20040;-79
2023/07/13 06:04:08;;;;;;;20.20;4.65;;;;;;;;;;5070857;28;20130;-78
2023/07/13 06:06:34;;;;;;;17.15;4.28;;;;;;;;;;5073034;28;20040;-78
2023/07/13 06:09:00;;;;;;;15.32;3.58;;;;;;;;;;5071632;28;20058;-78
2023/07/13 06:11:27;;;;;;;15.05;4.47;;;;;;;;;;5085930;28;20039;-78
2023/07/13 06:13:54;;;;;;;13.75;3.85;;;;;;;;;;5073600;28;20132;-78
2023/07/13 06:16:20;;;;;;;9.45;3.45;;;;;;;;;;5074222;28;20136;-78
2023/07/13 06:18:46;;;;;;;15.65;4.10;;;;;;;;;;5086971;28;20035;-78
2023/07/13 06:21:20;;;;;;;14.57;3.53;;;;;;;;;;5084690;27;20461;-78
2023/07/13 06:23:49;;;;;;;15.43;3.35;;;;;;;;;;5073469;28;20043;-78
2023/07/13 06:26:16;;;;;;;12.80;3.10;;;;;;;;;;5083901;28;20040;-77
2023/07/13 06:28:42;;;;;;;16.10;4.22;;;;;;;;;;5086025;28;20040;-77
2023/07/13 06:31:09;;;;;;;7.45;3.03;;;;;;;;;;5086224;28;20046;-78
2023/07/13 06:33:36;;;;;;;14.77;3.25;;;;;;;;;;5087752;28;20043;-77
2023/07/13 06:36:03;;;;;;;7.45;2.72;;;;;;;;;;5089048;27;20035;-78
2023/07/13 06:38:29;;;;;;;10.18;3.65;;;;;;;;;;5084673;28;20556;-78
2023/07/13 06:40:55;;;;;;;14.57;3.30;;;;;;;;;;5055696;27;20043;-77
2023/07/13 06:43:22;;;;;;;15.65;3.42;;;;;;;;;;5063644;28;20522;-78
2023/07/13 06:45:49;;;;;;;6.43;2.40;;;;;;;;;;5084544;28;20132;-78
2023/07/13 06:48:19;;;;;;;6.93;2.10;;;;;;;;;;5070103;28;20386;-78
2023/07/13 06:50:46;;;;;;;11.00;2.85;;;;;;;;;;5083233;28;20045;-78
2023/07/13 06:53:13;;;;;;;7.40;2.40;;;;;;;;;;5102505;27;20047;-78
2023/07/13 06:55:39;;;;;;;10.20;2.25;;;;;;;;;;5082374;28;20047;-78
2023/07/13 06:58:05;;;;;;;10.32;2.30;;;;;;;;;;5084933;27;20154;-78
2023/07/13 07:00:32;;;;;;;7.93;1.90;;;;;;;;;;5086578;28;20096;-77
2023/07/13 07:02:58;;;;;;;7.72;2.40;;;;;;;;;;5088264;28;20074;-78
2023/07/13 07:05:24;;;;;;;9.00;2.00;;;;;;;;;;5081969;28;20044;-78
2023/07/13 07:07:51;;;;;;;9.07;2.08;;;;;;;;;;5089150;28;20040;-78
2023/07/13 07:10:17;;;;;;;5.85;2.00;;;;;;;;;;5091460;28;20075;-78
2023/07/13 07:12:43;;;;;;;7.43;2.42;;;;;;;;;;5088140;28;20048;-78
2023/07/13 07:15:09;;;;;;;14.68;2.70;;;;;;;;;;5091168;28;20116;-79
2023/07/13 07:17:36;;;;;;;8.30;2.53;;;;;;;;;;5089553;28;20146;-78
2023/07/13 07:20:06;;;;;;;10.90;2.05;;;;;;;;;;5072920;28;20039;-78
2023/07/13 07:22:32;;;;;;;6.22;2.30;;;;;;;;;;5074221;27;20060;-80
2023/07/13 07:24:58;;;;;;;10.18;2.25;;;;;;;;;;5090214;28;20052;-80
2023/07/13 07:27:25;;;;;;;8.65;2.17;;;;;;;;;;5088852;27;20067;-80
2023/07/13 07:29:51;;;;;;;6.53;1.73;;;;;;;;;;5091918;28;20860;-81
2023/07/13 07:32:17;;;;;;;8.25;2.22;;;;;;;;;;5095427;28;20048;-79
2023/07/13 07:34:43;;;;;;;6.88;1.58;;;;;;;;;;5091679;28;20224;-80
2023/07/13 07:37:11;;;;;;;9.18;1.45;;;;;;;;;;5093102;28;20086;-81
2023/07/13 07:39:37;;;;;;;3.65;1.45;;;;;;;;;;5072928;28;20511;-80
2023/07/13 07:42:04;;;;;;;5.05;1.63;;;;;;;;;;5069727;28;20086;-81
2023/07/13 07:44:31;;;;;;;5.18;1.70;;;;;;;;;;5075891;28;20518;-80
2023/07/13 07:46:57;;;;;;;10.82;2.00;;;;;;;;;;5078053;28;20121;-82
2023/07/13 07:49:23;;;;;;;5.80;1.67;;;;;;;;;;5092121;28;21776;-81
2023/07/13 07:51:50;;;;;;;6.05;1.63;;;;;;;;;;5085475;28;20051;-81
2023/07/13 07:54:16;;;;;;;6.97;1.90;;;;;;;;;;5066464;28;20059;-80
2023/07/13 07:56:43;;;;;;;4.95;1.55;;;;;;;;;;5078562;28;20040;-80
2023/07/13 07:59:09;;;;;;;7.72;2.00;;;;;;;;;;5053261;28;20492;-80
2023/07/13 08:01:36;;;;;;;8.13;1.77;;;;;;;;;;5072721;28;20043;-80
2023/07/13 08:04:02;;;;;;;5.47;1.70;;;;;;;;;;5070000;28;20098;-80
2023/07/13 08:06:28;;;;;;;8.15;2.28;;;;;;;;;;5087919;28;20047;-80
2023/07/13 08:08:55;;;;;;;4.93;1.50;;;;;;;;;;5094144;28;20139;-80
2023/07/13 08:11:22;;;;;;;6.07;1.58;;;;;;;;;;5074105;28;20046;-79
2023/07/13 08:13:48;;;;;;;8.30;2.08;;;;;;;;;;5072264;28;20036;-81
2023/07/13 08:16:14;;;;;;;6.05;1.75;;;;;;;;;;5076231;28;20180;-80
2023/07/13 08:18:40;;;;;;;4.38;1.40;;;;;;;;;;5077626;28;20171;-80
2023/07/13 08:21:07;;;;;;;5.05;1.52;;;;;;;;;;5093300;28;20052;-80
2023/07/13 08:23:33;;;;;;;7.28;1.58;;;;;;;;;;5094658;27;20048;-80
2023/07/13 08:26:01;;;;;;;2.80;1.30;;;;;;;;;;5089901;27;20074;-81
2023/07/13 08:28:30;;;;;;;6.90;1.67;;;;;;;;;;5086406;27;20051;-80
2023/07/13 08:31:11;;;;;;;5.68;1.73;;;;;;;;;;5089331;28;20062;-79
2023/07/13 08:33:38;;;;;;;3.75;1.50;;;;;;;;;;5086449;28;20062;-79
2023/07/13 08:36:05;;;;;;;6.97;1.33;;;;;;;;;;5086481;28;20319;-81
2023/07/13 08:38:31;;;;;;;6.05;1.65;;;;;;;;;;5051863;28;20067;-79
2023/07/13 08:40:57;;;;;;;5.38;1.50;;;;;;;;;;5087136;28;20051;-79
2023/07/13 08:43:26;;;;;;;6.35;1.70;;;;;;;;;;5084703;28;20055;-78
2023/07/13 08:45:52;;;;;;;4.13;2.30;;;;;;;;;;5083975;28;21642;-81
2023/07/13 08:48:27;;;;;;;7.78;2.30;;;;;;;;;;5088092;28;20027;-81
2023/07/13 08:51:04;;;;;;;8.43;2.25;;;;;;;;;;5073877;28;20413;-81
2023/07/13 08:53:36;;;;;;;7.55;2.70;;;;;;;;;;5084318;28;20051;-81
2023/07/13 08:56:02;;;;;;;5.47;2.03;;;;;;;;;;5087830;28;20078;-81
2023/07/13 08:58:29;;;;;;;3.63;1.50;;;;;;;;;;5086249;28;20364;-81
2023/07/13 09:01:25;;;;;;;3.22;1.50;;;;;;;;;;5072414;28;20047;-81
2023/07/13 09:04:05;;;;;;;9.63;1.90;;;;;;;;;;5057019;28;20059;-80
2023/07/13 09:06:49;;;;;;;5.30;1.80;;;;;;;;;;5086390;28;20507;-79
2023/07/13 09:09:35;;;;;;;4.95;1.98;;;;;;;;;;5088441;28;20036;-78
2023/07/13 09:12:20;;;;;;;7.05;1.70;;;;;;;;;;5071173;28;20044;-79
2023/07/13 09:14:52;;;;;;;4.43;1.70;;;;;;;;;;5087288;28;20051;-78
2023/07/13 09:17:19;;;;;;;3.45;1.40;;;;;;;;;;5086319;28;20043;-81
2023/07/13 09:19:49;;;;;;;5.75;1.45;;;;;;;;;;5089789;28;20075;-78
2023/07/13 09:22:16;;;;;;;6.95;1.67;;;;;;;;;;5075393;28;20071;-77
2023/07/13 09:25:05;;;;;;;3.50;1.55;;;;;;;;;;5085609;28;20387;-80
2023/07/13 09:27:43;;;;;;;5.90;1.52;;;;;;;;;;5079700;28;20039;-80
2023/07/13 09:30:16;;;;;;;7.28;1.63;;;;;;;;;;5088799;28;20047;-80
2023/07/13 09:32:43;;;;;;;7.85;1.63;;;;;;;;;;5110953;27;20495;-81
2023/07/13 09:35:14;;;;;;;6.97;1.52;;;;;;;;;;5078417;28;20130;-79
2023/07/13 09:37:41;;;;;;;4.68;1.42;;;;;;;;;;5078310;28;20135;-81
2023/07/13 09:40:12;;;;;;;4.50;1.40;;;;;;;;;;5074479;28;20073;-81
2023/07/13 09:42:38;;;;;;;4.43;1.70;;;;;;;;;;5088256;28;20056;-81
2023/07/13 09:45:06;;;;;;;7.72;2.08;;;;;;;;;;5072976;28;20488;-81
2023/07/13 09:47:39;;;;;;;5.38;1.80;;;;;;;;;;5106515;27;20046;-80
2023/07/13 09:50:11;;;;;;;6.25;1.65;;;;;;;;;;5112074;27;20510;-81
2023/07/13 09:52:44;;;;;;;6.18;1.73;;;;;;;;;;5092974;28;20079;-80
2023/07/13 09:55:10;;;;;;;;;;;;;;;;;;5095887;28;20052;-79
2023/07/13 09:57:46;;;;;;;17.20;3.45;;;;;;;;;;5081376;28;19976;-83
2023/07/13 10:00:20;;;;;;;15.13;3.00;;;;;;;;;;5080210;28;20342;-83
2023/07/13 10:02:47;;;;;;;7.35;2.13;;;;;;;;;;5114668;27;20047;-84
2023/07/13 10:05:16;;;;;;;7.40;2.17;;;;;;;;;;5098208;28;20040;-85
2023/07/13 10:07:45;;;;;;;6.57;2.20;;;;;;;;;;5116375;27;20039;-83
2023/07/13 10:10:15;;;;;;;3.75;1.83;;;;;;;;;;5082096;27;20093;-83
2023/07/13 10:12:41;;;;;;;5.00;2.70;;;;;;;;;;5093500;28;20116;-76
2023/07/13 10:15:14;;;;;;;3.03;1.40;;;;;;;;;;5078870;27;20040;-82
2023/07/13 10:17:40;;;;;;;4.07;1.60;;;;;;;;;;5094694;27;20131;-82
2023/07/13 10:20:12;;;;;;;4.28;1.90;;;;;;;;;;5095563;28;20054;-82
2023/07/13 10:22:41;;;;;;;5.53;2.15;;;;;;;;;;5098363;27;20051;-81
2023/07/13 10:25:18;;;;;;;6.68;2.78;;;;;;;;;;5079083;28;20039;-80
2023/07/13 10:27:44;;;;;;;22.50;3.88;;;;;;;;;;5091862;28;20035;-83
2023/07/13 10:30:16;;;;;;;7.93;3.70;;;;;;;;;;5104306;27;20065;-85
2023/07/13 10:32:42;;;;;;;7.10;4.03;;;;;;;;;;5097264;28;20043;-82
2023/07/13 10:35:11;;;;;;;7.25;3.72;;;;;;;;;;5094124;28;20039;-83
2023/07/13 10:37:48;;;;;;;5.00;2.35;;;;;;;;;;5096312;28;20044;-80
2023/07/13 10:40:17;;;;;;;3.67;1.77;;;;;;;;;;5091736;28;20043;-80
2023/07/13 10:42:47;;;;;;;6.57;1.83;;;;;;;;;;5074997;28;20051;-79
2023/07/13 10:45:15;;;;;;;5.45;1.73;;;;;;;;;;5088350;28;20095;-80
2023/07/13 10:47:41;;;;;;;4.03;1.75;;;;;;;;;;5092449;28;20130;-79
2023/07/13 10:50:12;;;;;;;4.35;1.65;;;;;;;;;;5074383;28;20046;-78
2023/07/13 10:52:47;;;;;;;2.95;1.30;;;;;;;;;;5095404;28;20130;-78
2023/07/13 10:55:32;;;;;;;4.50;1.60;;;;;;;;;;5074992;28;20665;-79
2023/07/13 10:58:02;;;;;;;2.88;1.30;;;;;;;;;;5076215;28;20048;-77
2023/07/13 11:00:32;;;;;;;3.83;1.40;;;;;;;;;;5092358;28;20043;-78
2023/07/13 11:03:00;;;;;;;5.32;1.40;;;;;;;;;;5091943;28;20043;-77
2023/07/13 11:05:31;;;;;;;1.88;1.10;;;;;;;;;;5091275;28;20043;-78
2023/07/13 11:08:16;;;;;;;4.68;1.13;;;;;;;;;;5072871;28;20654;-78
2023/07/13 11:10:49;;;;;;;2.42;0.90;;;;;;;;;;5064363;28;20138;-78
2023/07/13 11:13:34;;;;;;;3.10;1.42;;;;;;;;;;5085745;28;20381;-77
2023/07/13 11:16:00;;;;;;;1.58;0.73;;;;;;;;;;5086898;28;20116;-78
2023/07/13 11:18:26;;;;;;;3.97;1.30;;;;;;;;;;5073863;28;20051;-78
2023/07/13 11:20:53;;;;;;;3.33;1.10;;;;;;;;;;5102340;27;20059;-75
2023/07/13 11:23:21;;;;;;;4.32;0.93;;;;;;;;;;5067912;28;20043;-76
2023/07/13 11:25:48;;;;;;;4.63;1.10;;;;;;;;;;5087165;28;20476;-78
2023/07/13 11:28:19;;;;;;;2.17;0.77;;;;;;;;;;5075789;28;21971;-77
2023/07/13 11:30:50;;;;;;;2.55;0.90;;;;;;;;;;5093759;28;20116;-77
2023/07/13 11:33:16;;;;;;;3.33;1.27;;;;;;;;;;5092484;28;20171;-78
2023/07/13 11:36:02;;;;;;;2.75;0.80;;;;;;;;;;5090134;28;20835;-77
2023/07/13 11:38:39;;;;;;;3.53;0.93;;;;;;;;;;5071678;28;20297;-78
2023/07/13 11:41:20;;;;;;;3.85;1.25;;;;;;;;;;5088484;28;20043;-78
2023/07/13 11:43:49;;;;;;;2.83;0.90;;;;;;;;;;5100572;27;20489;-78
2023/07/13 11:46:20;;;;;;;6.05;1.10;;;;;;;;;;5087865;28;20052;-78
2023/07/13 11:48:48;;;;;;;2.50;1.13;;;;;;;;;;5086486;28;20036;-78
2023/07/13 11:51:33;;;;;;;3.38;1.00;;;;;;;;;;5084798;28;20171;-78
2023/07/13 11:54:05;;;;;;;8.25;1.30;;;;;;;;;;5081936;28;20056;-79
2023/07/13 11:56:33;;;;;;;4.18;1.30;;;;;;;;;;5069019;28;20043;-79
2023/07/13 11:59:06;;;;;;;3.17;1.20;;;;;;;;;;5087275;28;20624;-79
2023/07/13 12:01:33;;;;;;;4.38;1.20;;;;;;;;;;5082979;28;20050;-75
2023/07/13 12:04:03;;;;;;;4.28;1.52;;;;;;;;;;5046551;28;20039;-76
2023/07/13 12:06:31;;;;;;;3.97;1.50;;;;;;;;;;5067918;28;20609;-78
2023/07/13 12:09:03;;;;;;;3.30;1.15;;;;;;;;;;5064645;28;22325;-76
2023/07/13 12:11:29;;;;;;;2.28;1.30;;;;;;;;;;5068400;28;20584;-77
2023/07/13 12:13:56;;;;;;;5.25;1.90;;;;;;;;;;5088153;28;20506;-76
2023/07/13 12:16:22;;;;;;;7.00;1.38;;;;;;;;;;5070038;28;20036;-77
2023/07/13 12:18:48;;;;;;;4.00;1.25;;;;;;;;;;5070613;28;20122;-76
2023/07/13 12:21:19;;;;;;;8.95;1.52;;;;;;;;;;5080927;28;20150;-76
2023/07/13 12:23:47;;;;;;;9.90;1.88;;;;;;;;;;5061231;28;20312;-77
2023/07/13 12:26:14;;;;;;;3.22;1.20;;;;;;;;;;5082312;28;20088;-76
2023/07/13 12:28:46;;;;;;;4.03;1.20;;;;;;;;;;5071149;28;20526;-77
2023/07/13 12:31:25;;;;;;;4.18;1.42;;;;;;;;;;5086023;28;20043;-76
2023/07/13 12:34:02;;;;;;;4.47;1.23;;;;;;;;;;5078707;28;20047;-76
2023/07/13 12:36:30;;;;;;;5.10;1.40;;;;;;;;;;5086743;28;20083;-77
2023/07/13 12:38:57;;;;;;;7.00;1.60;;;;;;;;;;5090207;28;20194;-76
2023/07/13 12:41:23;;;;;;;4.20;1.48;;;;;;;;;;5072894;28;21448;-77
2023/07/13 12:43:50;;;;;;;3.88;1.20;;;;;;;;;;5089990;28;20060;-77
2023/07/13 12:46:21;;;;;;;3.28;1.08;;;;;;;;;;5070940;28;20192;-77
2023/07/13 12:48:54;;;;;;;7.80;1.55;;;;;;;;;;5077926;28;20050;-78
2023/07/13 12:51:25;;;;;;;7.47;1.63;;;;;;;;;;5089010;28;20044;-74
2023/07/13 12:53:57;;;;;;;8.60;1.20;;;;;;;;;;5089253;28;20055;-75
2023/07/13 12:56:24;;;;;;;4.07;1.30;;;;;;;;;;5109377;27;20051;-77
2023/07/13 12:58:54;;;;;;;5.80;1.20;;;;;;;;;;5088481;28;20055;-77
2023/07/13 13:01:22;;;;;;;4.85;1.50;;;;;;;;;;5093342;28;20062;-76
2023/07/13 13:03:51;;;;;;;7.90;1.52;;;;;;;;;;5105344;27;20043;-77
2023/07/13 13:06:20;;;;;;;3.90;1.48;;;;;;;;;;5097541;28;20039;-77
2023/07/13 13:08:48;;;;;;;7.05;2.33;;;;;;;;;;5101494;28;20035;-75
2023/07/13 13:11:18;;;;;;;5.50;2.35;;;;;;;;;;5083360;28;20031;-77
2023/07/13 13:13:51;;;;;;;5.40;1.60;;;;;;;;;;5105527;28;20046;-76
2023/07/13 13:16:22;;;;;;;5.35;1.85;;;;;;;;;;5090170;28;20091;-78
2023/07/13 13:18:49;;;;;;;7.68;2.05;;;;;;;;;;5122099;27;20069;-75
2023/07/13 13:21:16;;;;;;;6.88;2.00;;;;;;;;;;5085337;28;20058;-74
2023/07/13 13:23:44;;;;;;;3.70;1.50;;;;;;;;;;5103538;27;20043;-76
2023/07/13 13:26:13;;;;;;;4.30;1.65;;;;;;;;;;5086281;28;20412;-76
2023/07/13 13:28:39;;;;;;;3.88;1.50;;;;;;;;;;5070971;28;20150;-76
2023/07/13 13:31:05;;;;;;;5.93;1.80;;;;;;;;;;5085154;28;20055;-76
2023/07/13 13:33:32;;;;;;;5.18;1.75;;;;;;;;;;5065016;28;20047;-76
2023/07/13 13:35:58;;;;;;;6.78;2.17;;;;;;;;;;5085499;27;20062;-76
2023/07/13 13:38:28;;;;;;;6.38;1.90;;;;;;;;;;5066584;28;20099;-76
2023/07/13 13:40:54;;;;;;;6.22;2.05;;;;;;;;;;5085962;28;20118;-75
2023/07/13 13:43:28;;;;;;;7.60;1.83;;;;;;;;;;5081033;28;20051;-76
2023/07/13 13:45:56;;;;;;;11.35;2.30;;;;;;;;;;5085730;28;21642;-76
2023/07/13 13:48:30;;;;;;;10.18;2.45;;;;;;;;;;5082965;28;20170;-77
2023/07/13 13:50:56;;;;;;;13.02;3.58;;;;;;;;;;5085173;28;20284;-75
2023/07/13 13:53:23;;;;;;;9.13;2.95;;;;;;;;;;5061616;28;20054;-77
2023/07/13 13:55:49;;;;;;;15.50;3.67;;;;;;;;;;5078721;28;20889;-77
2023/07/13 13:58:16;;;;;;;17.42;3.78;;;;;;;;;;5064071;28;20066;-76
2023/07/13 14:00:45;;;;;;;11.00;3.10;;;;;;;;;;5086876;28;20131;-77
2023/07/13 14:03:16;;;;;;;8.65;2.97;;;;;;;;;;5086800;28;20183;-76
2023/07/13 14:05:42;;;;;;;11.60;3.08;;;;;;;;;;5102166;27;20516;-76
2023/07/13 14:08:26;;;;;;;16.08;3.25;;;;;;;;;;5082711;28;20545;-76
2023/07/13 14:10:53;;;;;;;11.10;2.50;;;;;;;;;;5090238;28;20121;-77
2023/07/13 14:13:40;;;;;;;15.68;3.60;;;;;;;;;;5088163;28;20047;-77
2023/07/13 14:16:17;;;;;;;7.45;2.90;;;;;;;;;;5071059;28;20174;-77
2023/07/13 14:18:44;;;;;;;6.75;2.40;;;;;;;;;;5088838;28;20063;-76
2023/07/13 14:21:14;;;;;;;8.07;2.63;;;;;;;;;;5083276;28;20048;-76
2023/07/13 14:23:40;;;;;;;9.85;2.72;;;;;;;;;;5085371;28;20040;-75
2023/07/13 14:26:14;;;;;;;8.73;2.58;;;;;;;;;;5086307;28;20039;-72
2023/07/13 14:28:42;;;;;;;;;;;;;;;;;;5085838;27;20119;-73
2023/07/13 14:31:09;;;;;;;11.18;2.28;;;;;;;;;;5084272;27;19927;-74
2023/07/13 14:33:35;;;;;;;8.32;2.30;;;;;;;;;;5085298;27;20050;-74
2023/07/13 14:36:01;;;;;;;10.48;2.10;;;;;;;;;;5083407;28;20126;-73
2023/07/13 14:38:27;;;;;;;11.32;2.67;;;;;;;;;;5085434;27;20055;-72
2023/07/13 14:40:54;;;;;;;9.23;2.55;;;;;;;;;;5085933;28;21677;-73
2023/07/13 14:43:20;;;;;;;5.72;2.22;;;;;;;;;;5100180;27;20066;-73